sensor_id;sensor_type;location;lat;lon;timestamp;P1;durP1;ratioP1;P2;durP2;ratioP2
69087;SDS011;56190;43.562;5.036;2024-01-15T00:01:35;40.88;;;28.10;;
69087;SDS011;56190;43.562;5.036;2024-01-15T00:04:00;42.88;;;27.65;;
69087;SDS011;56190;43.562;5.036;2024-01-15T00:06:25;37.97;;;27.08;;
69087;SDS011;56190;43.562;5.036;2024-01-15T00:08:52;41.80;;;27.77;;
69087;SDS011;56190;43.562;5.036;2024-01-15T00:11:17;38.25;;;26.70;;
69087;SDS011;56190;43.562;5.036;2024-01-15T00:13:42;37.95;;;27.23;;
69087;SDS011;56190;43.562;5.036;2024-01-15T00:16:08;40.25;;;27.90;;
69087;SDS011;56190;43.562;5.036;2024-01-15T00:18:33;39.55;;;27.23;;
69087;SDS011;56190;43.562;5.036;2024-01-15T00:20:58;41.38;;;27.63;;
69087;SDS011;56190;43.562;5.036;2024-01-15T00:23:24;41.25;;;27.80;;
69087;SDS011;56190;43.562;5.036;2024-01-15T00:25:50;38.63;;;26.80;;
69087;SDS011;56190;43.562;5.036;2024-01-15T00:28:16;42.28;;;28.38;;
69087;SDS011;56190;43.562;5.036;2024-01-15T00:30:41;41.17;;;28.08;;
69087;SDS011;56190;43.562;5.036;2024-01-15T00:33:06;39.78;;;27.95;;
69087;SDS011;56190;43.562;5.036;2024-01-15T00:35:32;41.83;;;27.58;;
69087;SDS011;56190;43.562;5.036;2024-01-15T00:37:58;40.80;;;27.58;;
69087;SDS011;56190;43.562;5.036;2024-01-15T00:40:23;39.05;;;26.83;;
69087;SDS011;56190;43.562;5.036;2024-01-15T00:42:50;39.20;;;26.92;;
69087;SDS011;56190;43.562;5.036;2024-01-15T00:45:15;37.70;;;26.42;;
69087;SDS011;56190;43.562;5.036;2024-01-15T00:47:40;36.20;;;26.35;;
69087;SDS011;56190;43.562;5.036;2024-01-15T00:50:06;37.65;;;27.15;;
69087;SDS011;56190;43.562;5.036;2024-01-15T00:52:31;39.88;;;26.13;;
69087;SDS011;56190;43.562;5.036;2024-01-15T00:54:57;36.75;;;26.15;;
69087;SDS011;56190;43.562;5.036;2024-01-15T00:57:22;37.45;;;26.60;;
69087;SDS011;56190;43.562;5.036;2024-01-15T00:59:48;36.80;;;25.73;;
69087;SDS011;56190;43.562;5.036;2024-01-15T01:02:13;39.30;;;26.38;;
69087;SDS011;56190;43.562;5.036;2024-01-15T01:04:38;38.28;;;26.60;;
69087;SDS011;56190;43.562;5.036;2024-01-15T01:07:04;40.75;;;27.20;;
69087;SDS011;56190;43.562;5.036;2024-01-15T01:09:29;35.83;;;25.38;;
69087;SDS011;56190;43.562;5.036;2024-01-15T01:11:55;38.15;;;26.33;;
69087;SDS011;56190;43.562;5.036;2024-01-15T01:14:20;39.85;;;27.58;;
69087;SDS011;56190;43.562;5.036;2024-01-15T01:16:46;37.20;;;26.15;;
69087;SDS011;56190;43.562;5.036;2024-01-15T01:19:11;37.92;;;25.83;;
69087;SDS011;56190;43.562;5.036;2024-01-15T01:21:36;37.20;;;25.70;;
69087;SDS011;56190;43.562;5.036;2024-01-15T01:24:01;36.67;;;25.25;;
69087;SDS011;56190;43.562;5.036;2024-01-15T01:26:27;37.65;;;25.58;;
69087;SDS011;56190;43.562;5.036;2024-01-15T01:28:52;37.90;;;25.60;;
69087;SDS011;56190;43.562;5.036;2024-01-15T01:31:17;33.88;;;24.08;;
69087;SDS011;56190;43.562;5.036;2024-01-15T01:33:43;33.47;;;23.98;;
69087;SDS011;56190;43.562;5.036;2024-01-15T01:36:08;35.40;;;23.77;;
69087;SDS011;56190;43.562;5.036;2024-01-15T01:38:34;34.05;;;22.40;;
69087;SDS011;56190;43.562;5.036;2024-01-15T01:40:59;33.13;;;22.50;;
69087;SDS011;56190;43.562;5.036;2024-01-15T01:43:25;31.08;;;21.73;;
69087;SDS011;56190;43.562;5.036;2024-01-15T01:45:50;30.42;;;20.92;;
69087;SDS011;56190;43.562;5.036;2024-01-15T01:48:15;29.60;;;20.25;;
69087;SDS011;56190;43.562;5.036;2024-01-15T01:50:40;29.85;;;20.33;;
69087;SDS011;56190;43.562;5.036;2024-01-15T01:53:06;29.23;;;20.27;;
69087;SDS011;56190;43.562;5.036;2024-01-15T01:55:31;27.30;;;19.92;;
69087;SDS011;56190;43.562;5.036;2024-01-15T01:57:58;28.65;;;19.85;;
69087;SDS011;56190;43.562;5.036;2024-01-15T02:00:24;27.75;;;18.83;;
69087;SDS011;56190;43.562;5.036;2024-01-15T02:02:49;27.48;;;18.92;;
69087;SDS011;56190;43.562;5.036;2024-01-15T02:05:15;26.83;;;18.15;;
69087;SDS011;56190;43.562;5.036;2024-01-15T02:07:43;23.25;;;17.25;;
69087;SDS011;56190;43.562;5.036;2024-01-15T02:10:09;24.88;;;17.35;;
69087;SDS011;56190;43.562;5.036;2024-01-15T02:12:34;26.08;;;17.98;;
69087;SDS011;56190;43.562;5.036;2024-01-15T02:15:00;24.38;;;16.55;;
69087;SDS011;56190;43.562;5.036;2024-01-15T02:17:25;25.27;;;16.60;;
69087;SDS011;56190;43.562;5.036;2024-01-15T02:19:50;21.88;;;15.30;;
69087;SDS011;56190;43.562;5.036;2024-01-15T02:22:16;23.38;;;15.40;;
69087;SDS011;56190;43.562;5.036;2024-01-15T02:24:41;22.30;;;15.73;;
69087;SDS011;56190;43.562;5.036;2024-01-15T02:27:06;24.08;;;16.17;;
69087;SDS011;56190;43.562;5.036;2024-01-15T02:29:32;21.25;;;15.30;;
69087;SDS011;56190;43.562;5.036;2024-01-15T02:31:57;22.00;;;14.93;;
69087;SDS011;56190;43.562;5.036;2024-01-15T02:34:23;23.55;;;15.50;;
69087;SDS011;56190;43.562;5.036;2024-01-15T02:36:48;20.55;;;14.70;;
69087;SDS011;56190;43.562;5.036;2024-01-15T02:39:13;22.88;;;14.93;;
69087;SDS011;56190;43.562;5.036;2024-01-15T02:41:39;23.60;;;14.75;;
69087;SDS011;56190;43.562;5.036;2024-01-15T02:44:04;21.00;;;14.50;;
69087;SDS011;56190;43.562;5.036;2024-01-15T02:46:29;19.20;;;13.50;;
69087;SDS011;56190;43.562;5.036;2024-01-15T02:48:54;18.48;;;13.32;;
69087;SDS011;56190;43.562;5.036;2024-01-15T02:51:20;19.48;;;13.25;;
69087;SDS011;56190;43.562;5.036;2024-01-15T02:53:45;20.00;;;13.55;;
69087;SDS011;56190;43.562;5.036;2024-01-15T02:56:10;18.58;;;12.98;;
69087;SDS011;56190;43.562;5.036;2024-01-15T02:58:35;20.65;;;13.50;;
69087;SDS011;56190;43.562;5.036;2024-01-15T03:01:01;18.85;;;12.48;;
69087;SDS011;56190;43.562;5.036;2024-01-15T03:03:26;17.65;;;11.98;;
69087;SDS011;56190;43.562;5.036;2024-01-15T03:05:51;16.85;;;11.98;;
69087;SDS011;56190;43.562;5.036;2024-01-15T03:08:16;18.00;;;12.00;;
69087;SDS011;56190;43.562;5.036;2024-01-15T03:10:42;17.92;;;12.43;;
69087;SDS011;56190;43.562;5.036;2024-01-15T03:13:07;18.20;;;12.23;;
69087;SDS011;56190;43.562;5.036;2024-01-15T03:15:32;15.82;;;12.02;;
69087;SDS011;56190;43.562;5.036;2024-01-15T03:17:58;17.23;;;12.38;;
69087;SDS011;56190;43.562;5.036;2024-01-15T03:20:23;17.65;;;12.07;;
69087;SDS011;56190;43.562;5.036;2024-01-15T03:22:48;17.02;;;12.13;;
69087;SDS011;56190;43.562;5.036;2024-01-15T03:25:14;17.60;;;12.40;;
69087;SDS011;56190;43.562;5.036;2024-01-15T03:27:39;16.00;;;12.02;;
69087;SDS011;56190;43.562;5.036;2024-01-15T03:30:05;18.55;;;13.15;;
69087;SDS011;56190;43.562;5.036;2024-01-15T03:32:30;18.92;;;13.68;;
69087;SDS011;56190;43.562;5.036;2024-01-15T03:34:55;19.25;;;13.30;;
69087;SDS011;56190;43.562;5.036;2024-01-15T03:37:21;18.42;;;12.57;;
69087;SDS011;56190;43.562;5.036;2024-01-15T03:39:46;20.33;;;14.18;;
69087;SDS011;56190;43.562;5.036;2024-01-15T03:42:11;19.27;;;13.63;;
69087;SDS011;56190;43.562;5.036;2024-01-15T03:44:36;22.45;;;14.13;;
69087;SDS011;56190;43.562;5.036;2024-01-15T03:47:02;21.48;;;14.75;;
69087;SDS011;56190;43.562;5.036;2024-01-15T03:49:27;18.60;;;14.13;;
69087;SDS011;56190;43.562;5.036;2024-01-15T03:51:52;18.95;;;13.63;;
69087;SDS011;56190;43.562;5.036;2024-01-15T03:54:17;19.42;;;13.43;;
69087;SDS011;56190;43.562;5.036;2024-01-15T03:56:43;18.58;;;13.20;;
69087;SDS011;56190;43.562;5.036;2024-01-15T03:59:08;17.52;;;13.13;;
69087;SDS011;56190;43.562;5.036;2024-01-15T04:01:33;17.42;;;12.40;;
69087;SDS011;56190;43.562;5.036;2024-01-15T04:03:59;19.60;;;13.40;;
69087;SDS011;56190;43.562;5.036;2024-01-15T04:06:24;16.80;;;11.68;;
69087;SDS011;56190;43.562;5.036;2024-01-15T04:08:49;15.80;;;11.93;;
69087;SDS011;56190;43.562;5.036;2024-01-15T04:11:15;16.23;;;12.02;;
69087;SDS011;56190;43.562;5.036;2024-01-15T04:13:40;17.48;;;12.38;;
69087;SDS011;56190;43.562;5.036;2024-01-15T04:16:05;17.38;;;12.15;;
69087;SDS011;56190;43.562;5.036;2024-01-15T04:18:31;17.38;;;12.10;;
69087;SDS011;56190;43.562;5.036;2024-01-15T04:20:56;15.30;;;11.07;;
69087;SDS011;56190;43.562;5.036;2024-01-15T04:23:21;15.95;;;11.30;;
69087;SDS011;56190;43.562;5.036;2024-01-15T04:25:47;14.90;;;11.35;;
69087;SDS011;56190;43.562;5.036;2024-01-15T04:28:12;15.65;;;11.57;;
69087;SDS011;56190;43.562;5.036;2024-01-15T04:30:38;17.65;;;12.35;;
69087;SDS011;56190;43.562;5.036;2024-01-15T04:33:03;16.85;;;12.23;;
69087;SDS011;56190;43.562;5.036;2024-01-15T04:35:28;16.23;;;11.93;;
69087;SDS011;56190;43.562;5.036;2024-01-15T04:37:54;15.55;;;11.40;;
69087;SDS011;56190;43.562;5.036;2024-01-15T04:40:19;17.23;;;12.00;;
69087;SDS011;56190;43.562;5.036;2024-01-15T04:42:44;15.45;;;11.70;;
69087;SDS011;56190;43.562;5.036;2024-01-15T04:45:12;15.52;;;11.20;;
69087;SDS011;56190;43.562;5.036;2024-01-15T04:47:38;15.73;;;11.32;;
69087;SDS011;56190;43.562;5.036;2024-01-15T04:50:04;16.60;;;12.23;;
69087;SDS011;56190;43.562;5.036;2024-01-15T04:52:29;15.43;;;11.40;;
69087;SDS011;56190;43.562;5.036;2024-01-15T04:54:54;14.18;;;10.98;;
69087;SDS011;56190;43.562;5.036;2024-01-15T04:57:20;16.38;;;11.70;;
69087;SDS011;56190;43.562;5.036;2024-01-15T04:59:45;17.45;;;12.48;;
69087;SDS011;56190;43.562;5.036;2024-01-15T05:02:10;18.55;;;12.45;;
69087;SDS011;56190;43.562;5.036;2024-01-15T05:04:35;17.50;;;11.90;;
69087;SDS011;56190;43.562;5.036;2024-01-15T05:07:00;18.05;;;12.77;;
69087;SDS011;56190;43.562;5.036;2024-01-15T05:09:26;18.63;;;12.95;;
69087;SDS011;56190;43.562;5.036;2024-01-15T05:11:51;18.85;;;13.38;;
69087;SDS011;56190;43.562;5.036;2024-01-15T05:14:16;22.55;;;13.95;;
69087;SDS011;56190;43.562;5.036;2024-01-15T05:16:48;21.10;;;15.35;;
69087;SDS011;56190;43.562;5.036;2024-01-15T05:19:13;19.35;;;13.57;;
69087;SDS011;56190;43.562;5.036;2024-01-15T05:21:39;18.38;;;13.60;;
69087;SDS011;56190;43.562;5.036;2024-01-15T05:24:04;22.50;;;15.55;;
69087;SDS011;56190;43.562;5.036;2024-01-15T05:26:29;22.70;;;13.90;;
69087;SDS011;56190;43.562;5.036;2024-01-15T05:28:54;20.95;;;14.90;;
69087;SDS011;56190;43.562;5.036;2024-01-15T05:31:20;22.42;;;15.68;;
69087;SDS011;56190;43.562;5.036;2024-01-15T05:33:45;20.48;;;14.82;;
69087;SDS011;56190;43.562;5.036;2024-01-15T05:36:10;23.08;;;16.17;;
69087;SDS011;56190;43.562;5.036;2024-01-15T05:38:36;23.92;;;16.65;;
69087;SDS011;56190;43.562;5.036;2024-01-15T05:41:01;21.33;;;16.05;;
69087;SDS011;56190;43.562;5.036;2024-01-15T05:43:26;24.13;;;16.83;;
69087;SDS011;56190;43.562;5.036;2024-01-15T05:45:52;20.25;;;14.70;;
69087;SDS011;56190;43.562;5.036;2024-01-15T05:48:17;21.70;;;15.25;;
69087;SDS011;56190;43.562;5.036;2024-01-15T05:50:42;21.95;;;15.57;;
69087;SDS011;56190;43.562;5.036;2024-01-15T05:53:07;21.83;;;15.60;;
69087;SDS011;56190;43.562;5.036;2024-01-15T05:55:33;22.92;;;15.95;;
69087;SDS011;56190;43.562;5.036;2024-01-15T05:57:58;22.70;;;15.77;;
69087;SDS011;56190;43.562;5.036;2024-01-15T06:00:23;19.10;;;14.27;;
69087;SDS011;56190;43.562;5.036;2024-01-15T06:02:48;21.92;;;15.88;;
69087;SDS011;56190;43.562;5.036;2024-01-15T06:05:14;20.67;;;14.68;;
69087;SDS011;56190;43.562;5.036;2024-01-15T06:07:39;21.35;;;15.77;;
69087;SDS011;56190;43.562;5.036;2024-01-15T06:10:04;21.00;;;14.55;;
69087;SDS011;56190;43.562;5.036;2024-01-15T06:12:30;94.00;;;63.20;;
69087;SDS011;56190;43.562;5.036;2024-01-15T06:14:56;89.22;;;61.60;;
69087;SDS011;56190;43.562;5.036;2024-01-15T06:17:21;48.50;;;37.53;;
69087;SDS011;56190;43.562;5.036;2024-01-15T06:19:46;40.70;;;33.40;;
69087;SDS011;56190;43.562;5.036;2024-01-15T06:22:12;35.45;;;28.25;;
69087;SDS011;56190;43.562;5.036;2024-01-15T06:24:37;31.98;;;26.75;;
69087;SDS011;56190;43.562;5.036;2024-01-15T06:27:02;27.27;;;21.10;;
69087;SDS011;56190;43.562;5.036;2024-01-15T06:29:27;24.13;;;20.05;;
69087;SDS011;56190;43.562;5.036;2024-01-15T06:31:53;24.30;;;18.38;;
69087;SDS011;56190;43.562;5.036;2024-01-15T06:34:18;22.02;;;16.52;;
69087;SDS011;56190;43.562;5.036;2024-01-15T06:36:43;20.88;;;14.80;;
69087;SDS011;56190;43.562;5.036;2024-01-15T06:39:10;21.60;;;15.57;;
69087;SDS011;56190;43.562;5.036;2024-01-15T06:41:35;27.17;;;19.38;;
69087;SDS011;56190;43.562;5.036;2024-01-15T06:44:06;24.70;;;18.27;;
69087;SDS011;56190;43.562;5.036;2024-01-15T06:46:31;40.78;;;29.08;;
69087;SDS011;56190;43.562;5.036;2024-01-15T06:48:56;31.20;;;22.48;;
69087;SDS011;56190;43.562;5.036;2024-01-15T06:51:22;38.58;;;29.95;;
69087;SDS011;56190;43.562;5.036;2024-01-15T06:53:47;33.40;;;25.23;;
69087;SDS011;56190;43.562;5.036;2024-01-15T06:56:12;27.77;;;21.38;;
69087;SDS011;56190;43.562;5.036;2024-01-15T06:58:37;21.42;;;16.77;;
69087;SDS011;56190;43.562;5.036;2024-01-15T07:01:03;21.42;;;16.25;;
69087;SDS011;56190;43.562;5.036;2024-01-15T07:03:29;21.20;;;16.02;;
69087;SDS011;56190;43.562;5.036;2024-01-15T07:05:54;23.98;;;17.48;;
69087;SDS011;56190;43.562;5.036;2024-01-15T07:08:20;21.27;;;16.88;;
69087;SDS011;56190;43.562;5.036;2024-01-15T07:10:45;21.67;;;16.35;;
69087;SDS011;56190;43.562;5.036;2024-01-15T07:13:10;22.25;;;15.48;;
69087;SDS011;56190;43.562;5.036;2024-01-15T07:15:36;19.30;;;14.80;;
69087;SDS011;56190;43.562;5.036;2024-01-15T07:18:01;19.95;;;14.40;;
69087;SDS011;56190;43.562;5.036;2024-01-15T07:20:26;22.10;;;15.40;;
69087;SDS011;56190;43.562;5.036;2024-01-15T07:22:52;22.55;;;17.05;;
69087;SDS011;56190;43.562;5.036;2024-01-15T07:25:17;19.80;;;15.20;;
69087;SDS011;56190;43.562;5.036;2024-01-15T07:27:42;22.23;;;16.90;;
69087;SDS011;56190;43.562;5.036;2024-01-15T07:30:10;21.10;;;14.55;;
69087;SDS011;56190;43.562;5.036;2024-01-15T07:32:35;17.55;;;13.75;;
69087;SDS011;56190;43.562;5.036;2024-01-15T07:35:00;21.73;;;15.32;;
69087;SDS011;56190;43.562;5.036;2024-01-15T07:37:26;18.80;;;13.88;;
69087;SDS011;56190;43.562;5.036;2024-01-15T07:39:51;22.15;;;15.02;;
69087;SDS011;56190;43.562;5.036;2024-01-15T07:42:16;20.13;;;15.32;;
69087;SDS011;56190;43.562;5.036;2024-01-15T07:44:42;19.10;;;14.00;;
69087;SDS011;56190;43.562;5.036;2024-01-15T07:47:07;21.55;;;15.88;;
69087;SDS011;56190;43.562;5.036;2024-01-15T07:49:34;21.80;;;15.70;;
69087;SDS011;56190;43.562;5.036;2024-01-15T07:51:59;23.77;;;15.50;;
69087;SDS011;56190;43.562;5.036;2024-01-15T07:54:25;23.88;;;15.55;;
69087;SDS011;56190;43.562;5.036;2024-01-15T07:57:08;21.60;;;14.18;;
69087;SDS011;56190;43.562;5.036;2024-01-15T07:59:34;20.25;;;14.23;;
69087;SDS011;56190;43.562;5.036;2024-01-15T08:02:00;20.27;;;16.08;;
69087;SDS011;56190;43.562;5.036;2024-01-15T08:04:25;19.13;;;15.27;;
69087;SDS011;56190;43.562;5.036;2024-01-15T08:06:50;23.35;;;17.20;;
69087;SDS011;56190;43.562;5.036;2024-01-15T08:09:15;18.27;;;14.50;;
69087;SDS011;56190;43.562;5.036;2024-01-15T08:11:41;23.63;;;16.80;;
69087;SDS011;56190;43.562;5.036;2024-01-15T08:14:07;20.95;;;16.55;;
69087;SDS011;56190;43.562;5.036;2024-01-15T08:16:32;22.02;;;17.00;;
69087;SDS011;56190;43.562;5.036;2024-01-15T08:18:57;21.35;;;15.65;;
69087;SDS011;56190;43.562;5.036;2024-01-15T08:21:22;24.60;;;16.45;;
69087;SDS011;56190;43.562;5.036;2024-01-15T08:23:48;21.38;;;14.88;;
69087;SDS011;56190;43.562;5.036;2024-01-15T08:26:13;23.88;;;16.77;;
69087;SDS011;56190;43.562;5.036;2024-01-15T08:28:38;31.65;;;22.83;;
69087;SDS011;56190;43.562;5.036;2024-01-15T08:31:04;36.42;;;25.45;;
69087;SDS011;56190;43.562;5.036;2024-01-15T08:33:29;32.15;;;22.70;;
69087;SDS011;56190;43.562;5.036;2024-01-15T08:35:54;17.17;;;13.13;;
69087;SDS011;56190;43.562;5.036;2024-01-15T08:38:20;15.88;;;11.38;;
69087;SDS011;56190;43.562;5.036;2024-01-15T08:40:45;15.18;;;10.90;;
69087;SDS011;56190;43.562;5.036;2024-01-15T08:43:10;13.05;;;10.23;;
69087;SDS011;56190;43.562;5.036;2024-01-15T08:45:36;16.55;;;11.43;;
69087;SDS011;56190;43.562;5.036;2024-01-15T08:48:01;12.15;;;9.88;;
69087;SDS011;56190;43.562;5.036;2024-01-15T08:50:27;15.25;;;11.00;;
69087;SDS011;56190;43.562;5.036;2024-01-15T08:52:52;14.57;;;10.55;;
69087;SDS011;56190;43.562;5.036;2024-01-15T08:55:18;15.60;;;10.48;;
69087;SDS011;56190;43.562;5.036;2024-01-15T08:57:43;15.07;;;11.10;;
69087;SDS011;56190;43.562;5.036;2024-01-15T09:00:09;15.13;;;11.20;;
69087;SDS011;56190;43.562;5.036;2024-01-15T09:02:35;17.88;;;11.70;;
69087;SDS011;56190;43.562;5.036;2024-01-15T09:05:01;15.82;;;11.57;;
69087;SDS011;56190;43.562;5.036;2024-01-15T09:07:26;19.23;;;12.80;;
69087;SDS011;56190;43.562;5.036;2024-01-15T09:09:52;18.95;;;12.77;;
69087;SDS011;56190;43.562;5.036;2024-01-15T09:12:17;14.15;;;11.45;;
69087;SDS011;56190;43.562;5.036;2024-01-15T09:14:43;17.48;;;11.55;;
69087;SDS011;56190;43.562;5.036;2024-01-15T09:17:09;15.88;;;11.15;;
69087;SDS011;56190;43.562;5.036;2024-01-15T09:19:34;15.57;;;11.32;;
69087;SDS011;56190;43.562;5.036;2024-01-15T09:21:59;16.25;;;11.63;;
69087;SDS011;56190;43.562;5.036;2024-01-15T09:24:24;16.08;;;10.95;;
69087;SDS011;56190;43.562;5.036;2024-01-15T09:26:50;15.18;;;10.00;;
69087;SDS011;56190;43.562;5.036;2024-01-15T09:29:15;14.80;;;10.30;;
69087;SDS011;56190;43.562;5.036;2024-01-15T09:31:41;17.98;;;10.63;;
69087;SDS011;56190;43.562;5.036;2024-01-15T09:34:06;15.07;;;10.40;;
69087;SDS011;56190;43.562;5.036;2024-01-15T09:36:31;14.55;;;10.10;;
69087;SDS011;56190;43.562;5.036;2024-01-15T09:38:57;12.88;;;9.93;;
69087;SDS011;56190;43.562;5.036;2024-01-15T09:41:22;11.85;;;9.40;;
69087;SDS011;56190;43.562;5.036;2024-01-15T09:43:48;15.38;;;9.27;;
69087;SDS011;56190;43.562;5.036;2024-01-15T09:46:13;11.43;;;8.32;;
69087;SDS011;56190;43.562;5.036;2024-01-15T09:48:40;12.27;;;8.38;;
69087;SDS011;56190;43.562;5.036;2024-01-15T09:51:05;8.88;;;7.63;;
69087;SDS011;56190;43.562;5.036;2024-01-15T09:53:31;12.43;;;8.82;;
69087;SDS011;56190;43.562;5.036;2024-01-15T09:55:57;11.88;;;8.85;;
69087;SDS011;56190;43.562;5.036;2024-01-15T09:58:23;12.20;;;9.13;;
69087;SDS011;56190;43.562;5.036;2024-01-15T10:00:49;12.45;;;9.30;;
69087;SDS011;56190;43.562;5.036;2024-01-15T10:03:15;13.05;;;9.23;;
69087;SDS011;56190;43.562;5.036;2024-01-15T10:05:40;11.05;;;8.65;;
69087;SDS011;56190;43.562;5.036;2024-01-15T10:08:05;11.57;;;8.23;;
69087;SDS011;56190;43.562;5.036;2024-01-15T10:10:31;10.25;;;7.63;;
69087;SDS011;56190;43.562;5.036;2024-01-15T10:12:58;11.30;;;7.88;;
69087;SDS011;56190;43.562;5.036;2024-01-15T10:15:23;9.60;;;7.72;;
69087;SDS011;56190;43.562;5.036;2024-01-15T10:17:49;12.55;;;7.78;;
69087;SDS011;56190;43.562;5.036;2024-01-15T10:20:14;13.55;;;8.25;;
69087;SDS011;56190;43.562;5.036;2024-01-15T10:22:42;10.68;;;7.38;;
69087;SDS011;56190;43.562;5.036;2024-01-15T10:25:17;9.88;;;7.68;;
69087;SDS011;56190;43.562;5.036;2024-01-15T10:27:58;9.50;;;7.20;;
69087;SDS011;56190;43.562;5.036;2024-01-15T10:30:24;10.60;;;7.68;;
69087;SDS011;56190;43.562;5.036;2024-01-15T10:32:57;9.80;;;7.70;;
69087;SDS011;56190;43.562;5.036;2024-01-15T10:35:22;10.50;;;6.78;;
69087;SDS011;56190;43.562;5.036;2024-01-15T10:37:47;10.43;;;6.65;;
69087;SDS011;56190;43.562;5.036;2024-01-15T10:40:13;9.52;;;7.03;;
69087;SDS011;56190;43.562;5.036;2024-01-15T10:42:38;9.35;;;7.22;;
69087;SDS011;56190;43.562;5.036;2024-01-15T10:45:04;12.68;;;8.50;;
69087;SDS011;56190;43.562;5.036;2024-01-15T10:47:29;15.73;;;9.68;;
69087;SDS011;56190;43.562;5.036;2024-01-15T10:49:54;17.83;;;11.40;;
69087;SDS011;56190;43.562;5.036;2024-01-15T10:52:20;21.73;;;12.77;;
69087;SDS011;56190;43.562;5.036;2024-01-15T10:54:46;24.88;;;13.90;;
69087;SDS011;56190;43.562;5.036;2024-01-15T10:57:12;17.30;;;10.65;;
69087;SDS011;56190;43.562;5.036;2024-01-15T10:59:38;14.73;;;9.63;;
69087;SDS011;56190;43.562;5.036;2024-01-15T11:02:04;12.45;;;8.02;;
69087;SDS011;56190;43.562;5.036;2024-01-15T11:04:31;9.23;;;7.13;;
69087;SDS011;56190;43.562;5.036;2024-01-15T11:06:56;9.68;;;6.82;;
69087;SDS011;56190;43.562;5.036;2024-01-15T11:09:25;13.00;;;7.32;;
69087;SDS011;56190;43.562;5.036;2024-01-15T11:11:52;11.50;;;7.00;;
69087;SDS011;56190;43.562;5.036;2024-01-15T11:14:39;9.90;;;6.00;;
69087;SDS011;56190;43.562;5.036;2024-01-15T11:17:04;7.03;;;5.25;;
69087;SDS011;56190;43.562;5.036;2024-01-15T11:22:08;7.88;;;4.88;;
69087;SDS011;56190;43.562;5.036;2024-01-15T11:24:38;6.28;;;4.32;;
69087;SDS011;56190;43.562;5.036;2024-01-15T11:27:03;6.15;;;4.57;;
69087;SDS011;56190;43.562;5.036;2024-01-15T11:29:32;8.18;;;5.05;;
69087;SDS011;56190;43.562;5.036;2024-01-15T11:32:09;5.40;;;4.35;;
69087;SDS011;56190;43.562;5.036;2024-01-15T11:34:53;5.03;;;4.00;;
69087;SDS011;56190;43.562;5.036;2024-01-15T11:37:29;7.95;;;4.70;;
69087;SDS011;56190;43.562;5.036;2024-01-15T11:39:55;5.97;;;4.15;;
69087;SDS011;56190;43.562;5.036;2024-01-15T11:42:21;5.55;;;4.00;;
69087;SDS011;56190;43.562;5.036;2024-01-15T11:44:47;6.50;;;3.95;;
69087;SDS011;56190;43.562;5.036;2024-01-15T11:47:13;5.88;;;3.22;;
69087;SDS011;56190;43.562;5.036;2024-01-15T11:52:22;4.82;;;3.95;;
69087;SDS011;56190;43.562;5.036;2024-01-15T11:57:22;7.00;;;4.78;;
69087;SDS011;56190;43.562;5.036;2024-01-15T11:59:50;7.00;;;4.57;;
69087;SDS011;56190;43.562;5.036;2024-01-15T12:02:15;6.07;;;4.57;;
69087;SDS011;56190;43.562;5.036;2024-01-15T12:04:41;5.72;;;4.18;;
69087;SDS011;56190;43.562;5.036;2024-01-15T12:07:06;6.30;;;4.47;;
69087;SDS011;56190;43.562;5.036;2024-01-15T12:09:31;4.45;;;3.17;;
69087;SDS011;56190;43.562;5.036;2024-01-15T12:12:03;4.95;;;3.70;;
69087;SDS011;56190;43.562;5.036;2024-01-15T12:14:32;4.22;;;3.10;;
69087;SDS011;56190;43.562;5.036;2024-01-15T12:16:59;4.60;;;3.00;;
69087;SDS011;56190;43.562;5.036;2024-01-15T12:19:25;4.47;;;3.17;;
69087;SDS011;56190;43.562;5.036;2024-01-15T12:21:50;4.20;;;2.60;;
69087;SDS011;56190;43.562;5.036;2024-01-15T12:24:16;4.15;;;2.60;;
69087;SDS011;56190;43.562;5.036;2024-01-15T12:26:41;3.35;;;2.80;;
69087;SDS011;56190;43.562;5.036;2024-01-15T12:29:07;4.07;;;2.80;;
69087;SDS011;56190;43.562;5.036;2024-01-15T12:31:32;3.05;;;2.72;;
69087;SDS011;56190;43.562;5.036;2024-01-15T12:33:57;3.88;;;2.83;;
69087;SDS011;56190;43.562;5.036;2024-01-15T12:36:23;4.30;;;2.92;;
69087;SDS011;56190;43.562;5.036;2024-01-15T12:38:48;3.75;;;2.30;;
69087;SDS011;56190;43.562;5.036;2024-01-15T12:41:13;3.78;;;3.08;;
69087;SDS011;56190;43.562;5.036;2024-01-15T12:43:40;2.85;;;2.00;;
69087;SDS011;56190;43.562;5.036;2024-01-15T12:46:05;3.03;;;2.33;;
69087;SDS011;56190;43.562;5.036;2024-01-15T12:48:30;2.33;;;2.08;;
69087;SDS011;56190;43.562;5.036;2024-01-15T12:50:56;3.17;;;2.30;;
69087;SDS011;56190;43.562;5.036;2024-01-15T12:53:21;2.55;;;1.85;;
69087;SDS011;56190;43.562;5.036;2024-01-15T12:55:46;4.10;;;2.03;;
69087;SDS011;56190;43.562;5.036;2024-01-15T12:58:12;2.97;;;1.60;;
69087;SDS011;56190;43.562;5.036;2024-01-15T13:00:37;2.03;;;1.70;;
69087;SDS011;56190;43.562;5.036;2024-01-15T13:03:02;2.55;;;1.40;;
69087;SDS011;56190;43.562;5.036;2024-01-15T13:05:28;2.25;;;1.70;;
69087;SDS011;56190;43.562;5.036;2024-01-15T13:07:54;1.85;;;1.52;;
69087;SDS011;56190;43.562;5.036;2024-01-15T13:10:19;1.85;;;1.52;;
69087;SDS011;56190;43.562;5.036;2024-01-15T13:12:45;2.08;;;1.58;;
69087;SDS011;56190;43.562;5.036;2024-01-15T13:15:10;3.15;;;2.05;;
69087;SDS011;56190;43.562;5.036;2024-01-15T13:17:36;4.35;;;2.03;;
69087;SDS011;56190;43.562;5.036;2024-01-15T13:20:02;2.85;;;1.98;;
69087;SDS011;56190;43.562;5.036;2024-01-15T13:22:28;2.25;;;1.90;;
69087;SDS011;56190;43.562;5.036;2024-01-15T13:24:57;2.78;;;1.95;;
69087;SDS011;56190;43.562;5.036;2024-01-15T13:27:22;2.38;;;1.70;;
69087;SDS011;56190;43.562;5.036;2024-01-15T13:29:48;2.60;;;1.70;;
69087;SDS011;56190;43.562;5.036;2024-01-15T13:32:13;6.40;;;1.85;;
69087;SDS011;56190;43.562;5.036;2024-01-15T13:34:42;2.25;;;1.60;;
69087;SDS011;56190;43.562;5.036;2024-01-15T13:37:07;2.10;;;1.80;;
69087;SDS011;56190;43.562;5.036;2024-01-15T13:39:34;1.90;;;1.40;;
69087;SDS011;56190;43.562;5.036;2024-01-15T13:42:00;5.78;;;1.65;;
69087;SDS011;56190;43.562;5.036;2024-01-15T13:44:25;2.33;;;1.67;;
69087;SDS011;56190;43.562;5.036;2024-01-15T13:46:51;5.82;;;3.72;;
69087;SDS011;56190;43.562;5.036;2024-01-15T13:49:17;3.08;;;2.50;;
69087;SDS011;56190;43.562;5.036;2024-01-15T13:51:43;4.35;;;2.58;;
69087;SDS011;56190;43.562;5.036;2024-01-15T13:54:08;10.27;;;6.00;;
69087;SDS011;56190;43.562;5.036;2024-01-15T13:56:34;5.70;;;3.38;;
69087;SDS011;56190;43.562;5.036;2024-01-15T13:59:00;4.55;;;3.20;;
69087;SDS011;56190;43.562;5.036;2024-01-15T14:01:25;4.78;;;3.10;;
69087;SDS011;56190;43.562;5.036;2024-01-15T14:03:52;5.03;;;3.38;;
69087;SDS011;56190;43.562;5.036;2024-01-15T14:06:17;5.35;;;2.72;;
69087;SDS011;56190;43.562;5.036;2024-01-15T14:08:42;4.45;;;2.90;;
69087;SDS011;56190;43.562;5.036;2024-01-15T14:11:07;4.13;;;2.50;;
69087;SDS011;56190;43.562;5.036;2024-01-15T14:13:33;4.43;;;3.08;;
69087;SDS011;56190;43.562;5.036;2024-01-15T14:15:58;4.72;;;3.53;;
69087;SDS011;56190;43.562;5.036;2024-01-15T14:18:24;5.25;;;4.00;;
69087;SDS011;56190;43.562;5.036;2024-01-15T14:20:50;6.45;;;4.88;;
69087;SDS011;56190;43.562;5.036;2024-01-15T14:23:16;7.45;;;5.82;;
69087;SDS011;56190;43.562;5.036;2024-01-15T14:25:41;10.07;;;6.07;;
69087;SDS011;56190;43.562;5.036;2024-01-15T14:28:06;9.93;;;7.00;;